createdAt,value
2019-02-05T00:02:26.227Z,1.45
2019-02-05T00:06:31.687Z,1.40
2019-02-05T00:10:37.108Z,1.42
2019-02-05T00:14:42.588Z,1.37
2019-02-05T00:18:48.102Z,1.38
2019-02-05T00:22:53.825Z,1.41
2019-02-05T00:26:59.170Z,1.40
2019-02-05T00:31:05.373Z,1.43
2019-02-05T00:35:10.997Z,1.46
2019-02-05T00:39:16.399Z,1.44
2019-02-05T00:43:22.139Z,1.45
2019-02-05T00:47:27.700Z,1.51
2019-02-05T00:51:33.410Z,1.48
2019-02-05T00:55:38.724Z,1.53
2019-02-05T00:59:44.157Z,1.47
2019-02-05T01:03:49.569Z,1.52
2019-02-05T01:07:55.585Z,1.47
2019-02-05T01:12:01.452Z,1.49
2019-02-05T01:16:07.632Z,1.50
2019-02-05T01:20:16.541Z,1.55
2019-02-05T01:24:21.962Z,1.55
2019-02-05T01:28:27.380Z,1.51
2019-02-05T01:32:32.781Z,1.53
2019-02-05T01:36:38.238Z,1.47
2019-02-05T01:40:43.654Z,1.45
2019-02-05T01:44:49.200Z,1.54
2019-02-05T01:48:54.885Z,1.48
2019-02-05T01:53:03.773Z,1.49
2019-02-05T01:57:09.248Z,1.50
2019-02-05T02:01:14.983Z,1.49
2019-02-05T02:05:20.477Z,1.52
2019-02-05T02:09:26.080Z,1.51
2019-02-05T02:13:31.506Z,1.53
2019-02-05T02:17:37.296Z,1.50
2019-02-05T02:21:42.733Z,1.56
2019-02-05T02:25:48.058Z,1.50
2019-02-05T02:29:53.824Z,1.55
2019-02-05T02:33:59.235Z,1.53
2019-02-05T02:38:05.310Z,1.50
2019-02-05T02:42:10.965Z,1.50
2019-02-05T02:46:17.034Z,1.49
2019-02-05T02:50:22.801Z,1.51
2019-02-05T02:54:28.243Z,1.52
2019-02-05T02:58:33.496Z,1.46
2019-02-05T03:02:39.349Z,1.50
2019-02-05T03:06:44.680Z,1.47
2019-02-05T03:10:50.121Z,1.50
2019-02-05T03:14:55.879Z,1.53
2019-02-05T03:19:01.311Z,1.50
2019-02-05T03:23:07.135Z,1.54
2019-02-05T03:27:17.847Z,1.54
2019-02-05T03:31:19.803Z,1.53
2019-02-05T03:35:25.512Z,1.49
2019-02-05T03:39:30.851Z,1.49
2019-02-05T03:43:37.985Z,1.48
2019-02-05T03:47:43.778Z,1.51
2019-02-05T03:52:07.040Z,1.51
2019-02-05T03:57:14.908Z,1.52
2019-02-05T04:02:04.310Z,1.54
2019-02-05T04:07:04.281Z,1.53
2019-02-05T04:12:01.875Z,1.48
2019-02-05T04:17:20.892Z,1.55
2019-02-05T04:22:20.731Z,1.54
2019-02-05T04:27:43.852Z,1.56
2019-02-05T04:32:25.773Z,1.56
2019-02-05T04:37:25.804Z,1.56
2019-02-05T04:41:54.788Z,1.52
2019-02-05T04:46:57.992Z,1.56
2019-02-05T04:52:06.415Z,1.58
2019-02-05T04:56:46.691Z,1.58
2019-02-05T05:02:01.420Z,1.55
2019-02-05T05:07:01.379Z,1.54
2019-02-05T05:11:07.231Z,1.58
2019-02-05T05:15:14.081Z,1.61
2019-02-05T05:19:20.303Z,1.60
2019-02-05T05:23:26.033Z,1.61
2019-02-05T05:27:32.022Z,1.60
2019-02-05T05:31:37.446Z,1.60
2019-02-05T05:35:44.541Z,1.57
2019-02-05T05:39:50.053Z,1.62
2019-02-05T05:43:55.472Z,1.63
2019-02-05T05:48:00.961Z,1.61
2019-02-05T05:52:06.740Z,1.68
2019-02-05T05:56:12.514Z,1.69
2019-02-05T06:00:20.161Z,1.77
2019-02-05T06:04:25.789Z,1.78
2019-02-05T06:08:31.238Z,1.77
2019-02-05T06:12:36.759Z,1.74
2019-02-05T06:16:42.181Z,1.72
2019-02-05T06:20:47.953Z,1.76
2019-02-05T06:24:53.333Z,1.78
2019-02-05T06:28:58.785Z,1.76
2019-02-05T06:33:04.254Z,1.75
2019-02-05T06:37:10.057Z,1.76
2019-02-05T06:41:15.622Z,1.77
2019-02-05T06:45:21.053Z,1.76
2019-02-05T06:49:26.498Z,1.79
2019-02-05T06:53:31.918Z,1.77
2019-02-05T06:57:37.335Z,1.79
2019-02-05T07:01:43.539Z,1.77
2019-02-05T07:05:49.312Z,1.76
2019-02-05T07:09:54.809Z,1.78
2019-02-05T07:14:00.295Z,1.80
2019-02-05T07:18:06.045Z,1.79
2019-02-05T07:22:12.971Z,1.80
2019-02-05T07:26:18.326Z,1.83
2019-02-05T07:30:25.246Z,1.80
2019-02-05T07:34:30.961Z,1.82
2019-02-05T07:38:36.425Z,1.86
2019-02-05T07:42:42.163Z,1.88
2019-02-05T07:46:47.754Z,1.89
2019-02-05T07:50:53.190Z,1.87
2019-02-05T07:54:58.747Z,1.90
2019-02-05T07:59:10.444Z,1.94
2019-02-05T08:03:11.598Z,1.95
2019-02-05T08:07:17.068Z,1.98
2019-02-05T08:11:22.751Z,2.00
2019-02-05T08:15:31.146Z,2.05
2019-02-05T08:19:36.553Z,2.07
2019-02-05T08:23:42.008Z,2.11
2019-02-05T08:27:47.447Z,2.15
2019-02-05T08:31:53.088Z,2.22
2019-02-05T08:35:58.542Z,2.25
2019-02-05T08:40:05.796Z,2.30
2019-02-05T08:44:11.254Z,2.28
2019-02-05T08:48:16.812Z,2.27
2019-02-05T08:52:22.238Z,2.32
2019-02-05T08:56:27.781Z,2.33
2019-02-05T09:00:35.930Z,2.42
2019-02-05T09:04:41.320Z,2.45
2019-02-05T09:08:46.764Z,2.47
2019-02-05T09:12:52.230Z,2.60
2019-02-05T09:16:57.739Z,2.59
2019-02-05T09:21:03.184Z,2.56
2019-02-05T09:25:09.905Z,2.56
2019-02-05T09:29:15.349Z,2.64
2019-02-05T09:33:21.087Z,2.68
2019-02-05T09:37:26.859Z,2.62
2019-02-05T09:41:32.310Z,2.60
2019-02-05T09:45:37.856Z,2.77
2019-02-05T09:49:43.287Z,2.80
2019-02-05T09:53:48.679Z,2.83
2019-02-05T09:57:54.101Z,2.80
2019-02-05T10:01:59.886Z,2.87
2019-02-05T10:06:05.331Z,3.06
2019-02-05T10:10:13.503Z,3.13
2019-02-05T10:14:18.893Z,3.18
2019-02-05T10:18:24.749Z,3.33
2019-02-05T10:22:34.603Z,3.19
2019-02-05T10:26:40.154Z,3.30
2019-02-05T10:30:46.997Z,3.34
2019-02-05T10:34:52.450Z,3.50
2019-02-05T10:38:58.178Z,3.56
2019-02-05T10:43:03.798Z,3.36
2019-02-05T10:47:09.692Z,3.37
2019-02-05T10:51:15.209Z,3.58
2019-02-05T10:55:21.036Z,3.75
2019-02-05T10:59:26.451Z,3.46
2019-02-05T11:03:32.287Z,3.78
2019-02-05T11:07:38.048Z,3.56
2019-02-05T11:11:43.653Z,3.79
2019-02-05T11:15:49.019Z,3.90
2019-02-05T11:19:54.461Z,3.68
2019-02-05T11:23:59.921Z,3.72
2019-02-05T11:28:05.584Z,3.85
2019-02-05T11:32:11.036Z,3.92
2019-02-05T11:36:16.515Z,4.11
2019-02-05T11:40:28.826Z,3.95
2019-02-05T11:44:34.198Z,3.78
2019-02-05T11:48:39.943Z,3.96
2019-02-05T11:52:45.486Z,3.97
2019-02-05T11:56:51.306Z,3.83
2019-02-05T12:01:02.027Z,3.91
2019-02-05T12:05:08.283Z,3.74
2019-02-05T12:09:24.403Z,3.77
2019-02-05T12:13:29.871Z,3.75
2019-02-05T12:17:35.587Z,4.06
2019-02-05T12:21:41.076Z,4.00
2019-02-05T12:25:47.083Z,3.97
2019-02-05T12:29:53.106Z,3.85
2019-02-05T12:33:58.829Z,4.02
2019-02-05T12:38:04.942Z,4.02
2019-02-05T12:42:10.398Z,3.95
2019-02-05T12:46:15.763Z,3.91
2019-02-05T12:50:24.672Z,4.04
2019-02-05T12:54:30.018Z,4.18
2019-02-05T12:58:35.485Z,4.11
2019-02-05T13:02:40.939Z,4.15
2019-02-05T13:06:46.396Z,4.39
2019-02-05T13:10:53.510Z,4.12
2019-02-05T13:14:58.970Z,4.13
2019-02-05T13:19:04.415Z,4.21
2019-02-05T13:23:10.667Z,4.07
2019-02-05T13:27:16.074Z,4.28
2019-02-05T13:31:21.911Z,4.31
2019-02-05T13:35:27.858Z,4.56
2019-02-05T13:39:33.486Z,4.29
2019-02-05T13:43:39.223Z,4.19
2019-02-05T13:47:44.650Z,4.36
2019-02-05T13:51:50.110Z,4.21
2019-02-05T13:55:56.214Z,4.28
2019-02-05T14:00:01.973Z,4.48
2019-02-05T14:04:07.507Z,4.35
2019-02-05T14:08:13.222Z,4.32
2019-02-05T14:12:21.713Z,4.40
2019-02-05T14:16:26.042Z,4.55
2019-02-05T14:20:31.529Z,4.53
2019-02-05T14:24:40.209Z,4.46
2019-02-05T14:28:45.684Z,4.51
2019-02-05T14:32:51.172Z,4.65
2019-02-05T14:36:56.876Z,4.61
2019-02-05T14:41:02.334Z,4.64
2019-02-05T14:45:09.744Z,4.69
2019-02-05T14:49:15.276Z,4.70
2019-02-05T14:53:20.751Z,4.82
2019-02-05T14:57:26.295Z,4.99
2019-02-05T15:01:42.473Z,5.03
2019-02-05T15:05:39.811Z,4.81
2019-02-05T15:09:45.278Z,5.01
2019-02-05T15:13:50.762Z,4.84
2019-02-05T15:17:56.331Z,5.07
2019-02-05T15:22:01.868Z,5.07
2019-02-05T15:26:07.337Z,5.14
2019-02-05T15:30:23.963Z,5.30
2019-02-05T15:34:30.225Z,5.34
2019-02-05T15:38:36.101Z,5.59
2019-02-05T15:42:41.578Z,5.08
2019-02-05T15:46:47.023Z,5.28
2019-02-05T15:50:52.862Z,5.12
2019-02-05T15:54:58.694Z,5.05
2019-02-05T15:59:04.128Z,4.91
2019-02-05T16:03:10.089Z,4.90
2019-02-05T16:07:15.596Z,4.83
2019-02-05T16:11:21.100Z,4.83
2019-02-05T16:15:26.539Z,4.77
2019-02-05T16:19:32.099Z,4.81
2019-02-05T16:23:37.609Z,4.81
2019-02-05T16:27:43.389Z,4.59
2019-02-05T16:31:49.499Z,4.54
2019-02-05T16:35:55.019Z,4.38
2019-02-05T16:40:00.633Z,4.24
2019-02-05T16:44:06.358Z,4.15
2019-02-05T16:48:11.863Z,4.10
2019-02-05T16:52:17.392Z,4.06
2019-02-05T16:56:23.172Z,4.00
2019-02-05T17:00:33.483Z,4.00
2019-02-05T17:04:39.245Z,3.87
2019-02-05T17:08:44.688Z,3.84
2019-02-05T17:12:50.219Z,3.81
2019-02-05T17:16:55.655Z,3.82
2019-02-05T17:21:01.122Z,3.76
2019-02-05T17:25:09.713Z,3.77
2019-02-05T17:29:15.109Z,3.83
2019-02-05T17:33:20.773Z,3.77
2019-02-05T17:37:26.276Z,3.85
2019-02-05T17:41:31.715Z,3.88
2019-02-05T17:45:39.893Z,3.76
2019-02-05T17:49:45.318Z,3.85
2019-02-05T17:53:51.310Z,3.82
2019-02-05T17:57:56.888Z,3.88
2019-02-05T18:02:02.255Z,3.94
2019-02-05T18:06:08.892Z,3.87
2019-02-05T18:10:17.075Z,3.91
2019-02-05T18:14:22.536Z,3.96
2019-02-05T18:18:27.943Z,4.04
2019-02-05T18:22:33.497Z,3.99
2019-02-05T18:26:39.170Z,3.97
2019-02-05T18:30:44.621Z,3.93
2019-02-05T18:34:50.450Z,4.05
2019-02-05T18:38:56.255Z,4.00
2019-02-05T18:43:01.785Z,3.97
2019-02-05T18:47:07.337Z,4.05
2019-02-05T18:51:12.923Z,4.09
2019-02-05T18:55:18.612Z,4.12
2019-02-05T18:59:24.051Z,4.10
2019-02-05T19:03:29.848Z,3.97
2019-02-05T19:07:35.223Z,3.89
2019-02-05T19:11:40.880Z,3.89
2019-02-05T19:15:46.350Z,3.97
2019-02-05T19:19:52.268Z,3.90
2019-02-05T19:24:06.987Z,3.83
2019-02-05T19:28:19.095Z,3.68
2019-02-05T19:32:28.231Z,3.58
2019-02-05T19:36:33.970Z,3.40
2019-02-05T19:40:39.425Z,3.28
2019-02-05T19:44:51.433Z,3.09
2019-02-05T19:49:05.059Z,3.04
2019-02-05T19:53:10.750Z,3.00
2019-02-05T19:57:16.224Z,2.92
2019-02-05T20:01:22.055Z,2.99
2019-02-05T20:05:27.539Z,2.88
2019-02-05T20:09:32.965Z,2.74
2019-02-05T20:13:40.358Z,2.70
2019-02-05T20:17:45.954Z,2.59
2019-02-05T20:21:51.407Z,2.60
2019-02-05T20:25:57.108Z,2.44
2019-02-05T20:30:02.708Z,2.35
2019-02-05T20:34:08.635Z,2.19
2019-02-05T20:38:14.101Z,2.06
2019-02-05T20:42:19.574Z,1.97
2019-02-05T20:46:25.563Z,1.83
2019-02-05T20:50:30.817Z,1.69
2019-02-05T20:54:36.241Z,1.60
2019-02-05T20:58:41.728Z,1.49
2019-02-05T21:02:47.233Z,1.47
2019-02-05T21:06:53.076Z,1.42
2019-02-05T21:10:58.565Z,1.40
2019-02-05T21:15:05.234Z,1.38
2019-02-05T21:19:10.944Z,1.38
2019-02-05T21:23:16.413Z,1.33
2019-02-05T21:27:21.945Z,1.28
2019-02-05T21:31:27.403Z,1.17
2019-02-05T21:35:32.937Z,1.16
2019-02-05T21:39:38.936Z,1.08
2019-02-05T21:43:44.514Z,1.11
2019-02-05T21:47:49.963Z,1.08
2019-02-05T21:51:55.351Z,0.95
2019-02-05T21:56:01.174Z,0.90
2019-02-05T22:00:33.326Z,0.92
2019-02-05T22:04:38.792Z,0.88
2019-02-05T22:08:44.182Z,0.85
2019-02-05T22:12:49.587Z,0.78
2019-02-05T22:16:55.254Z,0.65
2019-02-05T22:21:02.576Z,0.47
2019-02-05T22:25:13.888Z,0.34
2019-02-05T22:29:19.184Z,0.26
2019-02-05T22:33:24.544Z,0.22
2019-02-05T22:37:31.453Z,0.15
2019-02-05T22:41:36.860Z,0.06
2019-02-05T22:45:42.412Z,-0.01
2019-02-05T22:49:47.835Z,-0.13
2019-02-05T22:53:53.271Z,-0.20
2019-02-05T22:57:59.404Z,-0.20
2019-02-05T23:02:06.890Z,-0.27
2019-02-05T23:06:57.260Z,-0.29
2019-02-05T23:11:45.515Z,-0.36
2019-02-05T23:15:52.366Z,-0.29
2019-02-05T23:19:57.928Z,-0.30
2019-02-05T23:24:03.367Z,0.01
2019-02-05T23:28:09.072Z,-0.06
2019-02-05T23:32:14.483Z,0.07
2019-02-05T23:36:19.986Z,0.35
2019-02-05T23:40:25.677Z,0.19
2019-02-05T23:44:31.240Z,0.17
2019-02-05T23:48:38.159Z,0.33
2019-02-05T23:52:43.898Z,0.36
2019-02-05T23:56:49.637Z,0.54
